Time;durP1;ratioP1;P1;durP2;ratioP2;P2;SDS_P1;SDS_P2;PMS_P1;PMS_P2;Temp;Humidity;BMP_temperature;BMP_pressure;BME280_temperature;BME280_humidity;BME280_pressure;Samples;Min_cycle;Max_cycle;Signal;HPM_P1;HPM_P2
2023/03/04 00:02:03;;;;;;;0.47;0.47;;;;;;;8.16;57.46;102834.34;5072413;28;20020;-85
2023/03/04 00:04:29;;;;;;;0.10;0.10;;;;;;;8.14;57.39;102833.41;5073922;28;20025;-86
2023/03/04 00:06:55;;;;;;;0.10;0.10;;;;;;;8.14;57.53;102836.94;5077713;28;20042;-85
2023/03/04 00:09:21;;;;;;;0.10;0.10;;;;;;;8.16;57.64;102832.59;5066787;28;20032;-86
2023/03/04 00:11:47;;;;;;;0.55;0.38;;;;;;;8.16;57.43;102826.41;5067078;28;20483;-85
2023/03/04 00:14:13;;;;;;;0.10;0.10;;;;;;;8.12;57.77;102830.72;5069813;28;20106;-85
2023/03/04 00:16:39;;;;;;;0.20;0.20;;;;;;;8.15;57.13;102829.91;5062397;28;20025;-85
2023/03/04 00:19:05;;;;;;;0.10;0.10;;;;;;;8.15;57.28;102832.53;5066916;28;20107;-85
2023/03/04 00:21:32;;;;;;;0.10;0.10;;;;;;;8.15;57.85;102833.44;5070498;28;20032;-86
2023/03/04 00:23:58;;;;;;;0.50;0.50;;;;;;;8.14;57.00;102833.41;5067000;28;20024;-87
2023/03/04 00:26:25;;;;;;;0.10;0.10;;;;;;;8.16;56.90;102835.25;5064261;28;20037;-85
2023/03/04 00:28:51;;;;;;;0.10;0.10;;;;;;;8.14;57.39;102818.47;5069335;28;20036;-85
2023/03/04 00:31:17;;;;;;;0.20;0.20;;;;;;;8.09;57.69;102828.03;5061734;28;20035;-87
2023/03/04 00:33:43;;;;;;;0.10;0.10;;;;;;;8.11;57.73;102823.66;5069139;28;20024;-85
2023/03/04 00:36:10;;;;;;;0.10;0.10;;;;;;;8.08;57.80;102828.88;5059572;28;20309;-85
2023/03/04 00:38:36;;;;;;;0.10;0.10;;;;;;;8.09;57.76;102833.31;5054829;28;20027;-86
2023/03/04 00:41:02;;;;;;;0.10;0.10;;;;;;;8.08;57.62;102823.59;5062020;28;20381;-85
2023/03/04 00:43:28;;;;;;;0.10;0.10;;;;;;;8.09;58.00;102826.28;5065254;28;20020;-87
2023/03/04 00:45:55;;;;;;;0.10;0.10;;;;;;;8.07;58.06;102828.00;5062294;28;20037;-85
2023/03/04 00:48:21;;;;;;;0.10;0.10;;;;;;;8.06;58.05;102828.84;5051017;28;20029;-85
2023/03/04 00:50:47;;;;;;;0.10;0.10;;;;;;;8.02;57.75;102829.63;5050197;28;20033;-86
2023/03/04 00:53:14;;;;;;;0.10;0.10;;;;;;;8.02;57.26;102826.97;5062662;28;20570;-86
2023/03/04 00:55:40;;;;;;;0.10;0.10;;;;;;;7.99;57.76;102826.03;5062950;28;20162;-88
2023/03/04 00:58:06;;;;;;;0.10;0.10;;;;;;;8.05;57.12;102829.72;5066166;28;20032;-87
2023/03/04 01:00:32;;;;;;;0.10;0.10;;;;;;;7.99;57.28;102829.56;5080868;28;20050;-87
2023/03/04 01:02:58;;;;;;;0.10;0.10;;;;;;;8.04;57.55;102825.28;5073860;28;20044;-87
2023/03/04 01:05:24;;;;;;;0.08;0.08;;;;;;;8.03;58.02;102820.84;5079942;28;20031;-86
2023/03/04 01:07:50;;;;;;;0.10;0.10;;;;;;;8.09;57.75;102821.00;5055759;28;20110;-86
2023/03/04 01:10:18;;;;;;;0.10;0.10;;;;;;;8.06;57.99;102828.84;5064664;28;20024;-86
2023/03/04 01:12:44;;;;;;;0.10;0.10;;;;;;;8.08;57.42;102821.84;5066393;28;20027;-82
2023/03/04 01:15:12;;;;;;;0.10;0.10;;;;;;;8.08;58.28;102821.84;5054538;28;20099;-86
2023/03/04 01:17:39;;;;;;;0.10;0.10;;;;;;;8.14;58.05;102822.84;5072324;28;20041;-87
2023/03/04 01:20:07;;;;;;;0.10;0.10;;;;;;;8.06;58.40;102823.59;5052451;28;20037;-86
2023/03/04 01:22:33;;;;;;;1.38;1.38;;;;;;;8.13;58.32;102823.72;5058789;28;20074;-86
2023/03/04 01:24:59;;;;;;;0.10;0.10;;;;;;;8.12;58.31;102821.94;5055707;28;20503;-86
2023/03/04 01:27:25;;;;;;;1.15;1.15;;;;;;;8.14;57.81;102804.34;5058659;28;20036;-85
2023/03/04 01:29:51;;;;;;;0.20;0.20;;;;;;;8.13;58.22;102821.06;5057619;28;20052;-85
2023/03/04 01:32:18;;;;;;;0.03;0.03;;;;;;;8.13;58.58;102811.41;5056926;28;20032;-85
2023/03/04 01:34:44;;;;;;;0.10;0.10;;;;;;;8.04;57.73;102806.81;5056053;28;20021;-86
2023/03/04 01:37:12;;;;;;;0.10;0.10;;;;;;;8.04;58.10;102801.53;5058084;28;20040;-86
2023/03/04 01:39:42;;;;;;;0.20;0.20;;;;;;;8.05;58.48;102800.66;5069959;28;20033;-86
2023/03/04 01:42:18;;;;;;;0.10;0.10;;;;;;;8.07;58.17;102792.78;5069772;28;20032;-86
2023/03/04 01:44:46;;;;;;;0.10;0.10;;;;;;;8.04;57.74;102790.97;5060165;28;20577;-86
2023/03/04 01:47:12;;;;;;;0.10;0.10;;;;;;;8.01;57.64;102798.84;5072461;28;20136;-86
2023/03/04 01:49:39;;;;;;;0.10;0.10;;;;;;;8.02;57.88;102791.78;5069116;28;20459;-86
2023/03/04 01:52:09;;;;;;;0.10;0.10;;;;;;;8.02;58.25;102786.50;5066010;28;20073;-86
2023/03/04 01:54:35;;;;;;;1.05;1.05;;;;;;;8.02;57.78;102782.09;5069823;28;20020;-84
2023/03/04 01:57:01;;;;;;;0.10;0.10;;;;;;;8.07;58.02;102785.78;5071045;28;20025;-86
2023/03/04 01:59:31;;;;;;;0.10;0.10;;;;;;;8.09;58.04;102777.88;5073314;28;20478;-86
2023/03/04 02:01:59;;;;;;;0.15;0.15;;;;;;;8.07;57.59;102780.50;5075215;28;20024;-85
2023/03/04 02:04:30;;;;;;;0.10;0.10;;;;;;;8.05;56.93;102768.09;5070852;28;20032;-85
2023/03/04 02:06:58;;;;;;;0.10;0.10;;;;;;;8.07;57.59;102769.94;5072046;28;20029;-87
2023/03/04 02:09:25;;;;;;;0.15;0.15;;;;;;;8.06;57.50;102760.22;5060423;28;20032;-86
2023/03/04 02:11:52;;;;;;;0.10;0.10;;;;;;;8.08;57.46;102768.16;5072367;28;20047;-86
2023/03/04 02:14:19;;;;;;;0.10;0.10;;;;;;;8.12;56.95;102761.19;5072163;28;20031;-87
2023/03/04 02:16:47;;;;;;;2.28;1.35;;;;;;;8.09;57.10;102751.47;5068141;28;20401;-86
2023/03/04 02:19:29;;;;;;;0.10;0.10;;;;;;;8.12;57.00;102753.28;5072735;28;20084;-84
2023/03/04 02:21:56;;;;;;;0.20;0.20;;;;;;;8.08;57.00;102750.56;5068658;28;20025;-86
2023/03/04 02:24:39;;;;;;;0.10;0.10;;;;;;;8.14;57.49;102752.44;5071547;28;20032;-87
2023/03/04 02:27:06;;;;;;;0.10;0.10;;;;;;;8.10;57.20;102748.84;5067016;28;20378;-84
2023/03/04 02:29:32;;;;;;;0.10;0.10;;;;;;;8.12;57.66;102746.25;5074518;28;20025;-86
2023/03/04 02:31:58;;;;;;;0.10;0.10;;;;;;;8.05;57.75;102745.22;5075633;28;20047;-85
2023/03/04 02:34:30;;;;;;;0.10;0.10;;;;;;;8.08;57.61;102741.75;5076486;28;20031;-86
2023/03/04 02:36:57;;;;;;;0.20;0.20;;;;;;;8.04;57.40;102738.16;5075519;28;20024;-86
2023/03/04 02:39:44;;;;;;;0.10;0.10;;;;;;;8.14;57.58;102733.06;5075666;28;20044;-86
2023/03/04 02:42:11;;;;;;;0.10;0.10;;;;;;;8.06;57.73;102730.28;5069889;28;20456;-86
2023/03/04 02:44:42;;;;;;;0.10;0.10;;;;;;;8.03;58.04;102731.09;5060660;28;20071;-88
2023/03/04 02:47:11;;;;;;;0.10;0.10;;;;;;;8.04;57.69;102732.00;5070251;28;20046;-87
2023/03/04 02:49:39;;;;;;;0.10;0.10;;;;;;;8.04;57.69;102727.59;5061829;28;20363;-86
2023/03/04 02:52:11;;;;;;;0.10;0.10;;;;;;;8.07;57.63;102729.41;5061306;28;20025;-86
2023/03/04 02:54:38;;;;;;;0.20;0.20;;;;;;;8.09;58.19;102740.91;5063906;28;20024;-87
2023/03/04 02:57:07;;;;;;;0.10;0.10;;;;;;;8.12;58.13;102724.25;5059441;28;20017;-84
2023/03/04 02:59:35;;;;;;;0.10;0.10;;;;;;;8.08;57.93;102724.16;5065573;28;20017;-81
2023/03/04 03:02:01;;;;;;;0.10;0.10;;;;;;;8.10;58.16;102727.72;5071501;28;20040;-85
2023/03/04 03:04:28;;;;;;;0.20;0.20;;;;;;;8.13;58.43;102726.03;5064765;28;20628;-87
2023/03/04 03:06:54;;;;;;;0.10;0.10;;;;;;;8.14;57.95;102723.41;5061520;28;20057;-85
2023/03/04 03:09:20;;;;;;;0.10;0.10;;;;;;;8.13;58.02;102726.91;5070606;28;20032;-86
2023/03/04 03:11:47;;;;;;;0.10;0.10;;;;;;;8.13;57.82;102721.63;5053567;28;20415;-86
2023/03/04 03:14:13;;;;;;;0.10;0.10;;;;;;;8.10;58.44;102722.44;5063989;28;20024;-86
2023/03/04 03:16:39;;;;;;;0.28;0.28;;;;;;;8.11;57.89;102723.31;5063181;28;20462;-85
2023/03/04 03:19:05;;;;;;;0.10;0.10;;;;;;;8.07;58.02;102717.13;5055018;28;20021;-84
2023/03/04 03:21:31;;;;;;;0.28;0.28;;;;;;;8.07;58.67;102721.50;5064252;28;20029;-86
2023/03/04 03:23:57;;;;;;;0.10;0.10;;;;;;;8.06;58.40;102720.63;5064370;28;20020;-85
2023/03/04 03:26:24;;;;;;;0.10;0.10;;;;;;;8.04;58.25;102722.31;5073449;28;20024;-84
2023/03/04 03:28:50;;;;;;;0.10;0.10;;;;;;;8.07;58.35;102719.75;5075199;28;20034;-84
2023/03/04 03:31:16;;;;;;;0.10;0.10;;;;;;;8.05;58.51;102713.56;5076515;28;20036;-84
2023/03/04 03:33:42;;;;;;;0.10;0.10;;;;;;;8.04;58.16;102714.41;5067498;28;20020;-85
2023/03/04 03:36:08;;;;;;;0.10;0.10;;;;;;;8.04;58.20;102716.16;5068568;28;20037;-83
2023/03/04 03:38:35;;;;;;;0.10;0.10;;;;;;;8.03;57.64;102717.91;5066419;28;20056;-84
2023/03/04 03:41:01;;;;;;;0.10;0.10;;;;;;;8.01;58.07;102717.00;5067709;28;20161;-84
2023/03/04 03:43:27;;;;;;;0.20;0.20;;;;;;;8.04;57.84;102711.75;5057106;28;20068;-83
2023/03/04 03:45:53;;;;;;;0.10;0.10;;;;;;;8.01;58.26;102716.09;5055448;28;20041;-83
2023/03/04 03:48:19;;;;;;;0.10;0.10;;;;;;;8.04;57.68;102717.03;5060183;28;20491;-84
2023/03/04 03:50:45;;;;;;;0.20;0.20;;;;;;;8.03;57.84;102720.53;5053037;28;20107;-84
2023/03/04 03:53:11;;;;;;;0.10;0.10;;;;;;;8.04;58.36;102719.69;5056009;28;20036;-84
2023/03/04 03:55:38;;;;;;;0.10;0.10;;;;;;;7.97;58.22;102715.13;5055635;28;20032;-83
2023/03/04 03:58:04;;;;;;;0.10;0.10;;;;;;;8.03;58.56;102720.53;5059206;28;20025;-86
2023/03/04 04:00:30;;;;;;;0.10;0.10;;;;;;;8.04;58.59;102716.16;5056974;28;20037;-86
2023/03/04 04:02:58;;;;;;;0.10;0.10;;;;;;;8.03;58.05;102724.94;5054201;28;20029;-82
2023/03/04 04:05:25;;;;;;;0.30;0.30;;;;;;;8.05;58.54;102717.91;5055711;28;20116;-84
2023/03/04 04:07:51;;;;;;;0.10;0.10;;;;;;;8.05;57.86;102718.84;5058578;28;20450;-83
2023/03/04 04:10:17;;;;;;;0.10;0.10;;;;;;;8.07;58.36;102717.13;5058789;28;20044;-83
2023/03/04 04:12:44;;;;;;;0.10;0.10;;;;;;;8.08;57.84;102723.28;5057093;28;20033;-84
2023/03/04 04:15:11;;;;;;;0.10;0.10;;;;;;;8.09;58.38;102725.06;5056739;28;20052;-85
2023/03/04 04:17:37;;;;;;;0.10;0.10;;;;;;;8.12;58.43;102724.25;5054839;28;20021;-85
2023/03/04 04:20:05;;;;;;;0.15;0.15;;;;;;;8.10;57.97;102722.44;5052010;28;20029;-84
2023/03/04 04:22:31;;;;;;;0.10;0.10;;;;;;;8.05;58.06;102721.47;5054155;28;20024;-85
2023/03/04 04:24:57;;;;;;;0.10;0.10;;;;;;;8.02;58.29;102724.03;5053448;28;20055;-85
2023/03/04 04:27:23;;;;;;;0.10;0.10;;;;;;;7.99;58.36;102718.69;5060430;28;20048;-85
2023/03/04 04:29:49;;;;;;;0.10;0.10;;;;;;;8.01;58.05;102718.72;5061515;28;20021;-84
2023/03/04 04:32:15;;;;;;;0.10;0.10;;;;;;;7.92;58.50;102717.69;5064906;28;20110;-84
2023/03/04 04:34:41;;;;;;;0.10;0.10;;;;;;;7.96;58.43;102718.63;5058931;28;20529;-85
2023/03/04 04:37:07;;;;;;;0.10;0.10;;;;;;;8.00;58.01;102725.78;5067279;28;20025;-83
2023/03/04 04:39:33;;;;;;;0.10;0.10;;;;;;;7.99;58.70;102718.69;5045869;28;20147;-83
2023/03/04 04:41:59;;;;;;;0.10;0.10;;;;;;;7.99;58.38;102721.34;5067914;28;20044;-83
2023/03/04 04:44:26;;;;;;;0.10;0.10;;;;;;;8.03;58.53;102725.81;5051948;28;20025;-82
2023/03/04 04:46:52;;;;;;;0.15;0.15;;;;;;;8.00;58.75;102720.50;5070659;28;20036;-85
2023/03/04 04:49:19;;;;;;;0.10;0.10;;;;;;;8.02;58.76;102728.44;5063156;28;20436;-85
2023/03/04 04:51:45;;;;;;;0.10;0.10;;;;;;;7.99;58.22;102729.25;5060480;28;20031;-85
2023/03/04 04:54:13;;;;;;;0.20;0.20;;;;;;;8.01;58.18;102730.19;5061311;28;20029;-86
2023/03/04 04:56:39;;;;;;;0.10;0.10;;;;;;;8.01;58.21;102724.91;5067452;28;20470;-85
2023/03/04 04:59:07;;;;;;;0.10;0.10;;;;;;;7.96;58.76;102726.53;5061317;28;20029;-86
2023/03/04 05:01:34;;;;;;;0.10;0.10;;;;;;;8.00;58.23;102725.78;5060746;28;20490;-86
2023/03/04 05:04:00;;;;;;;0.10;0.10;;;;;;;8.00;58.97;102725.78;5068691;28;20039;-86
2023/03/04 05:06:27;;;;;;;0.93;0.32;;;;;;;7.99;58.28;102729.25;5065267;28;20048;-85
2023/03/04 05:08:53;;;;;;;0.10;0.10;;;;;;;7.97;58.24;102719.53;5056232;28;20028;-86
2023/03/04 05:11:20;;;;;;;0.40;0.40;;;;;;;7.94;58.42;102726.50;5059558;28;20047;-85
2023/03/04 05:13:47;;;;;;;0.10;0.10;;;;;;;7.98;57.97;102727.47;5057085;28;20039;-83
2023/03/04 05:16:14;;;;;;;0.43;0.43;;;;;;;7.94;58.31;102731.78;5058059;28;20028;-83
2023/03/04 05:18:41;;;;;;;0.20;0.20;;;;;;;7.98;57.97;102727.47;5050214;28;20032;-82
2023/03/04 05:21:07;;;;;;;0.10;0.10;;;;;;;7.92;57.72;102724.69;5065767;28;20036;-84
2023/03/04 05:23:36;;;;;;;0.10;0.10;;;;;;;7.95;58.13;102722.16;5062165;28;20029;-84
2023/03/04 05:26:04;;;;;;;0.10;0.10;;;;;;;7.94;58.21;102730.91;5052287;28;20025;-83
2023/03/04 05:28:31;;;;;;;0.10;0.10;;;;;;;7.96;57.88;102729.19;5054894;28;20072;-81
2023/03/04 05:30:57;;;;;;;0.10;0.10;;;;;;;7.97;58.03;102730.97;5057336;28;20060;-86
2023/03/04 05:33:23;;;;;;;0.10;0.10;;;;;;;7.94;57.68;102723.00;5063685;28;20085;-87
2023/03/04 05:35:49;;;;;;;0.10;0.10;;;;;;;7.92;57.98;102722.06;5051651;28;20067;-87
2023/03/04 05:38:18;;;;;;;0.10;0.10;;;;;;;7.92;58.50;102722.97;5060465;28;20024;-87
2023/03/04 05:40:46;;;;;;;0.10;0.10;;;;;;;7.95;57.88;102732.72;5066656;28;20518;-87
2023/03/04 05:43:12;;;;;;;0.10;0.10;;;;;;;7.96;58.61;102728.31;5054089;28;20047;-87
2023/03/04 05:45:39;;;;;;;0.10;0.10;;;;;;;7.94;58.03;102728.28;5056604;28;20482;-85
2023/03/04 05:48:06;;;;;;;0.10;0.10;;;;;;;7.93;58.88;102723.84;5063576;28;20020;-86
2023/03/04 05:50:33;;;;;;;0.10;0.10;;;;;;;7.91;58.68;102725.56;5067196;28;20032;-85
2023/03/04 05:53:00;;;;;;;0.10;0.10;;;;;;;7.87;58.81;102724.59;5067899;28;20090;-86
2023/03/04 05:55:28;;;;;;;0.15;0.15;;;;;;;7.85;58.98;102725.44;5065174;28;20039;-85
2023/03/04 05:57:54;;;;;;;0.10;0.10;;;;;;;7.81;59.81;102728.88;5065775;28;20021;-84
2023/03/04 06:00:20;;;;;;;0.10;0.10;;;;;;;7.78;60.42;102724.41;5063571;28;20483;-84
2023/03/04 06:02:46;;;;;;;0.10;0.10;;;;;;;7.81;60.15;102723.59;5056756;28;20164;-84
2023/03/04 06:05:14;;;;;;;0.10;0.10;;;;;;;7.82;59.45;102723.59;5056553;28;20033;-87
2023/03/04 06:07:42;;;;;;;0.20;0.20;;;;;;;7.85;59.96;102730.69;5053975;28;20030;-86
2023/03/04 06:10:10;;;;;;;0.10;0.10;;;;;;;7.85;59.87;102720.16;5066681;28;20032;-87
2023/03/04 06:12:37;;;;;;;0.13;0.13;;;;;;;7.84;59.95;102724.53;5056277;28;20024;-85
2023/03/04 06:15:04;;;;;;;0.10;0.10;;;;;;;7.85;59.84;102720.16;5064658;28;20025;-87
2023/03/04 06:17:31;;;;;;;0.20;0.20;;;;;;;7.84;60.18;102728.91;5065069;28;20052;-87
2023/03/04 06:19:57;;;;;;;0.10;0.10;;;;;;;7.86;59.74;102724.56;5073026;28;20024;-85
2023/03/04 06:22:23;;;;;;;0.10;0.10;;;;;;;7.88;59.86;102725.50;5072368;28;20071;-84
2023/03/04 06:24:49;;;;;;;0.10;0.10;;;;;;;7.90;60.22;102722.03;5061390;28;20025;-85
2023/03/04 06:27:16;;;;;;;0.10;0.10;;;;;;;7.93;60.30;102723.84;5060733;28;20025;-89
2023/03/04 06:29:42;;;;;;;0.10;0.10;;;;;;;7.94;60.21;102736.19;5077774;28;20121;-87
2023/03/04 06:32:08;;;;;;;0.10;0.10;;;;;;;7.95;60.16;102732.72;5068832;28;20109;-87
2023/03/04 06:34:35;;;;;;;0.10;0.10;;;;;;;7.96;59.71;102729.19;5061012;28;20028;-87
2023/03/04 06:37:01;;;;;;;0.20;0.20;;;;;;;7.99;59.95;102733.63;5058088;28;20024;-87
2023/03/04 06:39:27;;;;;;;0.10;0.10;;;;;;;8.00;59.89;102731.06;5051106;28;20037;-87
2023/03/04 06:41:53;;;;;;;0.10;0.10;;;;;;;7.99;59.95;102729.25;5062022;28;20029;-89
2023/03/04 06:44:19;;;;;;;0.10;0.10;;;;;;;8.01;59.67;102738.13;5064885;28;20024;-88
2023/03/04 06:46:45;;;;;;;0.10;0.10;;;;;;;8.02;60.11;102728.44;5062221;28;20033;-86
2023/03/04 06:49:11;;;;;;;0.10;0.10;;;;;;;8.04;60.02;102735.53;5070172;28;20036;-86
2023/03/04 06:51:37;;;;;;;0.10;0.10;;;;;;;8.05;60.45;102733.75;5062372;28;20032;-86
2023/03/04 06:54:03;;;;;;;0.20;0.20;;;;;;;8.07;59.71;102732.06;5058716;28;20482;-88
2023/03/04 06:56:32;;;;;;;0.10;0.10;;;;;;;8.09;60.16;102738.28;5065417;28;20482;-88
2023/03/04 06:58:58;;;;;;;0.10;0.10;;;;;;;8.09;59.74;102736.50;5067854;28;20032;-86
2023/03/04 07:01:26;;;;;;;0.10;0.10;;;;;;;8.12;60.16;102742.72;5067828;28;20031;-87
2023/03/04 07:03:54;;;;;;;0.10;0.10;;;;;;;8.12;60.24;102742.72;5081895;28;20172;-87
2023/03/04 07:06:23;;;;;;;0.13;0.13;;;;;;;8.13;59.58;102744.50;5086928;28;20025;-86
2023/03/04 07:08:50;;;;;;;0.13;0.13;;;;;;;8.15;59.62;102748.97;5070782;28;20081;-86
2023/03/04 07:11:17;;;;;;;0.10;0.10;;;;;;;8.16;59.98;102747.19;5070651;28;20057;-87
2023/03/04 07:13:43;;;;;;;0.10;0.10;;;;;;;8.16;59.92;102741.91;5056945;28;20031;-86
2023/03/04 07:16:17;;;;;;;0.10;0.10;;;;;;;8.19;59.63;102745.50;5056213;28;20136;-86
2023/03/04 07:18:44;;;;;;;0.10;0.10;;;;;;;8.16;60.12;102742.81;5067246;28;20032;-87
2023/03/04 07:21:11;;;;;;;0.57;0.40;;;;;;;8.16;60.21;102742.81;5071548;28;20115;-87
2023/03/04 07:23:37;;;;;;;0.10;0.10;;;;;;;8.17;59.65;102746.34;5061586;28;20482;-87
2023/03/04 07:26:04;;;;;;;0.10;0.10;;;;;;;8.17;59.57;102751.63;5056949;28;20049;-86
2023/03/04 07:28:31;;;;;;;0.10;0.10;;;;;;;8.19;59.67;102758.72;5056597;28;20037;-87
2023/03/04 07:31:07;;;;;;;0.10;0.10;;;;;;;8.20;59.77;102760.50;5070861;28;20024;-88
2023/03/04 07:33:33;;;;;;;5.63;1.55;;;;;;;8.25;59.07;102757.97;5060925;28;20033;-88
2023/03/04 07:35:59;;;;;;;0.10;0.10;;;;;;;8.18;59.58;102763.97;5061159;28;20028;-87
2023/03/04 07:38:25;;;;;;;0.10;0.10;;;;;;;8.20;59.87;102765.78;5071744;28;20021;-87
2023/03/04 07:40:57;;;;;;;0.10;0.10;;;;;;;8.24;59.72;102767.63;5060020;28;20032;-87
2023/03/04 07:43:24;;;;;;;0.10;0.10;;;;;;;8.25;60.11;102764.13;5072837;28;20035;-87
2023/03/04 07:45:50;;;;;;;0.10;0.10;;;;;;;8.25;60.29;102769.41;5053334;28;20562;-87
2023/03/04 07:48:18;;;;;;;0.10;0.10;;;;;;;8.27;60.21;102772.06;5071058;28;20513;-88
2023/03/04 07:50:44;;;;;;;0.28;0.28;;;;;;;8.30;60.65;102772.16;5054597;28;20028;-87
2023/03/04 07:53:11;;;;;;;0.10;0.10;;;;;;;8.29;61.95;102780.94;5069823;28;20035;-87
2023/03/04 07:55:37;;;;;;;0.10;0.10;;;;;;;8.30;62.35;102788.00;5062981;28;20017;-87
2023/03/04 07:58:03;;;;;;;0.10;0.10;;;;;;;8.25;61.96;102779.97;5066799;28;20021;-87
2023/03/04 08:00:29;;;;;;;0.10;0.10;;;;;;;8.34;61.87;102788.97;5059316;28;20029;-87
2023/03/04 08:02:55;;;;;;;0.10;0.10;;;;;;;8.33;62.16;102790.69;5068281;28;20021;-87
2023/03/04 08:05:21;;;;;;;0.10;0.10;;;;;;;8.34;61.89;102784.56;5061572;28;20402;-87
2023/03/04 08:07:47;;;;;;;0.10;0.10;;;;;;;8.44;61.40;102783.00;5047956;28;20025;-84
2023/03/04 08:10:14;;;;;;;0.10;0.10;;;;;;;8.50;61.72;102785.78;5046562;28;20029;-85
2023/03/04 08:12:40;;;;;;;0.10;0.10;;;;;;;8.57;61.57;102790.34;5040872;28;20029;-86
2023/03/04 08:15:07;;;;;;;0.10;0.10;;;;;;;8.63;62.32;102786.03;5064488;28;20027;-87
2023/03/04 08:17:33;;;;;;;0.10;0.10;;;;;;;8.66;62.12;102792.28;5067180;28;20029;-88
2023/03/04 08:19:59;;;;;;;0.10;0.10;;;;;;;8.71;61.70;102774.75;5053034;28;20076;-85
2023/03/04 08:22:25;;;;;;;0.10;0.10;;;;;;;8.77;61.34;102788.94;5039378;28;20032;-86
2023/03/04 08:24:51;;;;;;;0.10;0.10;;;;;;;8.85;61.25;102788.22;5052433;28;20032;-87
2023/03/04 08:27:17;;;;;;;0.10;0.10;;;;;;;8.93;61.33;102780.41;5052812;28;20376;-86
2023/03/04 08:29:43;;;;;;;0.10;0.10;;;;;;;8.99;61.56;102780.53;5053824;28;20486;-86
2023/03/04 08:32:09;;;;;;;0.10;0.10;;;;;;;9.03;61.30;102782.38;5059991;28;20041;-87
2023/03/04 08:34:39;;;;;;;0.10;0.10;;;;;;;9.09;60.58;102786.00;5054277;28;20037;-87
2023/03/04 08:37:06;;;;;;;0.10;0.10;;;;;;;9.07;60.72;102784.22;5052672;28;20029;-88
2023/03/04 08:39:34;;;;;;;0.20;0.20;;;;;;;9.07;60.88;102785.94;5052731;28;20025;-87
2023/03/04 08:42:03;;;;;;;0.10;0.10;;;;;;;9.08;61.05;102785.09;5053363;28;20044;-86
2023/03/04 08:44:29;;;;;;;0.20;0.20;;;;;;;9.10;61.18;102785.09;5052894;28;20036;-87
2023/03/04 08:46:55;;;;;;;0.10;0.10;;;;;;;9.13;61.92;102782.53;5052841;28;20044;-88
2023/03/04 08:49:21;;;;;;;0.10;0.10;;;;;;;9.16;61.61;102778.19;5053870;28;20067;-88
2023/03/04 08:51:47;;;;;;;0.10;0.10;;;;;;;9.16;62.00;102785.22;5052341;28;20494;-87
2023/03/04 08:54:13;;;;;;;0.10;0.10;;;;;;;9.17;62.04;102776.41;5052359;28;20032;-87
2023/03/04 08:56:40;;;;;;;0.10;0.10;;;;;;;9.17;61.55;102773.78;5053965;28;20441;-87
2023/03/04 08:59:06;;;;;;;0.10;0.10;;;;;;;9.21;61.33;102771.22;5052294;28;20025;-87
2023/03/04 09:01:32;;;;;;;0.10;0.10;;;;;;;9.24;61.89;102778.31;5052910;28;20158;-86
2023/03/04 09:03:58;;;;;;;0.10;0.10;;;;;;;9.23;62.18;102781.81;5053082;28;20025;-86
2023/03/04 09:06:24;;;;;;;0.10;0.10;;;;;;;9.27;62.30;102770.44;5054293;28;20158;-85
2023/03/04 09:08:50;;;;;;;0.10;0.10;;;;;;;9.27;62.13;102774.81;5053621;28;20029;-86
2023/03/04 09:11:17;;;;;;;0.10;0.10;;;;;;;9.24;62.53;102775.66;5052107;28;20048;-86
2023/03/04 09:13:43;;;;;;;0.20;0.20;;;;;;;9.19;63.83;102772.06;5052088;28;20031;-86
2023/03/04 09:16:11;;;;;;;0.10;0.10;;;;;;;9.17;64.22;102769.38;5052389;28;20029;-86
2023/03/04 09:18:38;;;;;;;0.15;0.15;;;;;;;9.14;63.63;102771.09;5052375;28;20430;-86
2023/03/04 09:21:05;;;;;;;0.10;0.10;;;;;;;9.17;63.36;102773.78;5052111;28;20568;-84
2023/03/04 09:23:31;;;;;;;0.10;0.10;;;;;;;9.19;64.01;102761.47;5050546;28;20126;-86
2023/03/04 09:25:57;;;;;;;0.10;0.10;;;;;;;9.21;64.65;102772.97;5052710;28;20406;-86
2023/03/04 09:28:23;;;;;;;0.13;0.13;;;;;;;9.26;64.83;102763.38;5052832;28;20024;-86
2023/03/04 09:30:49;;;;;;;0.10;0.10;;;;;;;9.32;63.85;102768.75;5051881;28;20035;-87
2023/03/04 09:33:16;;;;;;;0.10;0.10;;;;;;;9.44;64.09;102761.88;5051579;28;20056;-85
2023/03/04 09:35:42;;;;;;;0.10;0.10;;;;;;;9.54;65.07;102762.06;5052984;28;20029;-85
2023/03/04 09:38:08;;;;;;;0.10;0.10;;;;;;;9.63;64.62;102756.00;5053126;28;20035;-86
2023/03/04 09:40:45;;;;;;;0.20;0.20;;;;;;;9.75;63.65;102751.75;5052067;28;20025;-88
2023/03/04 09:43:18;;;;;;;0.10;0.10;;;;;;;9.77;64.00;102756.19;5052889;28;20028;-87
2023/03/04 09:45:50;;;;;;;0.10;0.10;;;;;;;9.66;63.66;102758.69;5051976;28;20061;-87
2023/03/04 09:48:21;;;;;;;0.10;0.10;;;;;;;9.61;63.99;102760.38;5052123;28;20029;-87
2023/03/04 09:51:04;;;;;;;0.10;0.10;;;;;;;9.57;65.36;102760.28;5051886;28;20056;-86
2023/03/04 09:53:48;;;;;;;0.10;0.10;;;;;;;9.54;64.87;102763.78;5052045;28;20029;-87
2023/03/04 09:56:14;;;;;;;0.03;0.03;;;;;;;9.41;65.09;102761.81;5051897;28;20128;-87
2023/03/04 09:59:10;;;;;;;0.00;0.00;;;;;;;9.49;66.07;102754.88;5051798;28;20068;-86
2023/03/04 10:01:44;;;;;;;0.10;0.10;;;;;;;9.52;65.83;102760.22;5051710;28;20040;-87
2023/03/04 10:06:55;;;;;;;0.10;0.10;;;;;;;9.47;67.53;102767.19;5096912;27;20393;-85
2023/03/04 10:12:05;;;;;;;0.10;0.10;;;;;;;9.43;66.78;102760.09;5101911;27;20336;-85
2023/03/04 10:14:38;;;;;;;0.10;0.10;;;;;;;9.49;67.42;102752.25;5086062;28;20075;-84
2023/03/04 10:22:30;;;;;;;0.10;0.10;;;;;;;9.77;67.01;102750.00;5095451;27;1858071;-84
2023/03/04 10:25:00;;;;;;;0.03;0.03;;;;;;;9.77;67.35;102750.00;5126094;28;20028;-82
2023/03/04 10:27:28;;;;;;;0.10;0.10;;;;;;;9.78;66.99;102751.78;5113734;28;20028;-85
2023/03/04 10:29:57;;;;;;;0.10;0.10;;;;;;;9.77;65.91;102750.00;5114487;28;20024;-83
2023/03/04 10:32:23;;;;;;;0.10;0.10;;;;;;;9.77;65.92;102745.59;5115212;28;20039;-85
2023/03/04 10:34:49;;;;;;;0.13;0.13;;;;;;;9.80;65.46;102745.63;5116104;28;20036;-84
2023/03/04 10:37:15;;;;;;;0.25;0.25;;;;;;;9.82;65.05;102738.63;5114343;28;20040;-86
2023/03/04 10:39:44;;;;;;;0.10;0.10;;;;;;;9.90;65.18;102744.00;5103408;28;20050;-84
2023/03/04 10:44:58;;;;;;;0.00;0.00;;;;;;;10.28;65.17;102743.59;5074747;28;20379;-85
2023/03/04 10:47:28;;;;;;;0.10;0.10;;;;;;;10.35;63.96;102747.19;5071362;28;20419;-85
2023/03/04 10:49:58;;;;;;;0.10;0.10;;;;;;;10.52;63.44;102737.72;5071821;28;20025;-85
2023/03/04 10:55:11;;;;;;;0.10;0.10;;;;;;;10.71;61.86;102732.59;5089454;27;20145;-85
2023/03/04 10:57:42;;;;;;;0.10;0.10;;;;;;;10.75;61.96;102730.88;5092576;28;20103;-86
2023/03/04 11:00:28;;;;;;;0.20;0.20;;;;;;;10.82;61.07;102727.41;5093669;28;20021;-86
2023/03/04 11:03:31;;;;;;;0.10;0.10;;;;;;;10.93;61.40;102728.38;5088214;28;20342;-86
2023/03/04 11:06:13;;;;;;;0.10;0.10;;;;;;;10.97;61.13;102731.97;5092978;28;20040;-86
2023/03/04 11:08:40;;;;;;;0.13;0.13;;;;;;;10.91;60.14;102722.19;5087739;28;20030;-86
2023/03/04 11:11:38;;;;;;;0.10;0.10;;;;;;;10.90;59.95;102724.81;5093367;28;20481;-86
2023/03/04 11:14:21;;;;;;;0.10;0.10;;;;;;;10.83;59.62;102727.41;5089664;28;20032;-87
2023/03/04 11:16:59;;;;;;;0.10;0.10;;;;;;;10.80;59.66;102722.09;5098284;28;20608;-87
2023/03/04 11:19:37;;;;;;;0.10;0.10;;;;;;;10.72;59.96;102710.53;5088311;28;20028;-86
2023/03/04 11:22:04;;;;;;;0.10;0.10;;;;;;;10.65;60.26;102720.19;5102255;28;20348;-86
2023/03/04 11:24:36;;;;;;;0.10;0.10;;;;;;;10.65;61.38;102717.53;5097685;28;20016;-88
2023/03/04 11:29:50;;;;;;;0.10;0.10;;;;;;;10.55;62.17;102715.66;5070017;28;20394;-84
2023/03/04 11:32:23;;;;;;;0.10;0.10;;;;;;;10.31;63.79;102724.19;5069390;28;20033;-83
2023/03/04 11:37:34;;;;;;;0.10;0.10;;;;;;;10.03;65.04;102716.81;5101225;27;1195437;-84
2023/03/04 11:40:27;;;;;;;0.10;0.10;;;;;;;10.06;64.90;102715.09;5113024;28;20026;-84
2023/03/04 11:43:19;;;;;;;0.17;0.17;;;;;;;10.06;66.08;102717.75;5115153;28;20016;-86
2023/03/04 11:51:10;;;;;;;0.10;0.10;;;;;;;10.20;65.64;102697.56;5102026;27;1192269;-84
2023/03/04 11:56:42;;;;;;;0.10;0.10;;;;;;;10.40;64.37;102705.78;5041052;28;20378;-84
2023/03/04 12:02:20;;;;;;;0.10;0.10;;;;;;;10.31;64.63;102701.22;5119886;27;20388;-86
2023/03/04 12:07:51;;;;;;;0.20;0.20;;;;;;;10.17;66.33;102681.66;5099339;27;20973;-85
2023/03/04 12:10:27;;;;;;;0.10;0.10;;;;;;;10.17;66.25;102686.97;5103277;28;20117;-84
2023/03/04 12:13:35;;;;;;;0.10;0.10;;;;;;;10.24;65.90;102693.22;5099746;28;20035;-84